sensor_id;sensor_type;location;lat;lon;timestamp;temperature;humidity
22986;DHT22;11659;51.092;7.080;2022-09-09T00:00:12;16.90;99.90
22986;DHT22;11659;51.092;7.080;2022-09-09T00:02:39;16.90;99.90
22986;DHT22;11659;51.092;7.080;2022-09-09T00:05:16;16.80;99.90
22986;DHT22;11659;51.092;7.080;2022-09-09T00:07:47;16.80;99.90
22986;DHT22;11659;51.092;7.080;2022-09-09T00:10:19;16.80;99.90
22986;DHT22;11659;51.092;7.080;2022-09-09T00:12:55;16.80;99.90
22986;DHT22;11659;51.092;7.080;2022-09-09T00:15:26;16.80;99.90
22986;DHT22;11659;51.092;7.080;2022-09-09T00:17:59;16.80;99.90
22986;DHT22;11659;51.092;7.080;2022-09-09T00:20:30;16.70;99.90
22986;DHT22;11659;51.092;7.080;2022-09-09T00:23:03;16.70;99.90
22986;DHT22;11659;51.092;7.080;2022-09-09T00:25:37;16.70;99.90
22986;DHT22;11659;51.092;7.080;2022-09-09T00:28:13;16.70;99.90
22986;DHT22;11659;51.092;7.080;2022-09-09T00:30:43;16.60;99.90
22986;DHT22;11659;51.092;7.080;2022-09-09T00:33:11;16.60;99.90
22986;DHT22;11659;51.092;7.080;2022-09-09T00:35:44;16.60;99.90
22986;DHT22;11659;51.092;7.080;2022-09-09T00:38:14;16.60;99.90
22986;DHT22;11659;51.092;7.080;2022-09-09T00:40:48;16.50;99.90
22986;DHT22;11659;51.092;7.080;2022-09-09T00:43:24;16.60;99.90
22986;DHT22;11659;51.092;7.080;2022-09-09T00:46:21;16.50;99.90
22986;DHT22;11659;51.092;7.080;2022-09-09T00:48:57;16.50;99.90
22986;DHT22;11659;51.092;7.080;2022-09-09T00:51:32;16.50;99.90
22986;DHT22;11659;51.092;7.080;2022-09-09T00:54:36;16.50;99.90
22986;DHT22;11659;51.092;7.080;2022-09-09T00:57:13;16.50;99.90
22986;DHT22;11659;51.092;7.080;2022-09-09T00:59:49;16.50;99.90
22986;DHT22;11659;51.092;7.080;2022-09-09T01:02:25;16.50;99.90
22986;DHT22;11659;51.092;7.080;2022-09-09T01:04:53;16.50;99.90
22986;DHT22;11659;51.092;7.080;2022-09-09T01:07:20;16.50;99.90
22986;DHT22;11659;51.092;7.080;2022-09-09T01:09:52;16.50;99.90
22986;DHT22;11659;51.092;7.080;2022-09-09T01:12:25;16.50;99.90
22986;DHT22;11659;51.092;7.080;2022-09-09T01:15:03;16.50;99.90
22986;DHT22;11659;51.092;7.080;2022-09-09T01:17:33;16.50;99.90
22986;DHT22;11659;51.092;7.080;2022-09-09T01:20:14;16.50;99.90
22986;DHT22;11659;51.092;7.080;2022-09-09T01:22:57;16.50;99.90
22986;DHT22;11659;51.092;7.080;2022-09-09T01:26:02;16.50;99.90
22986;DHT22;11659;51.092;7.080;2022-09-09T01:28:31;16.40;99.90
22986;DHT22;11659;51.092;7.080;2022-09-09T01:31:05;16.40;99.90
22986;DHT22;11659;51.092;7.080;2022-09-09T01:33:39;16.40;99.90
22986;DHT22;11659;51.092;7.080;2022-09-09T01:36:09;16.40;99.90
22986;DHT22;11659;51.092;7.080;2022-09-09T01:38:43;16.40;99.90
22986;DHT22;11659;51.092;7.080;2022-09-09T01:41:10;16.40;99.90
22986;DHT22;11659;51.092;7.080;2022-09-09T01:43:56;16.30;99.90
22986;DHT22;11659;51.092;7.080;2022-09-09T01:46:24;16.40;99.90
22986;DHT22;11659;51.092;7.080;2022-09-09T01:48:51;16.30;99.90
22986;DHT22;11659;51.092;7.080;2022-09-09T01:51:18;16.30;99.90
22986;DHT22;11659;51.092;7.080;2022-09-09T01:53:45;16.30;99.90
22986;DHT22;11659;51.092;7.080;2022-09-09T01:56:22;16.20;99.90
22986;DHT22;11659;51.092;7.080;2022-09-09T01:59:03;16.20;99.90
22986;DHT22;11659;51.092;7.080;2022-09-09T02:01:42;16.20;99.90
22986;DHT22;11659;51.092;7.080;2022-09-09T02:04:21;16.20;99.90
22986;DHT22;11659;51.092;7.080;2022-09-09T02:06:52;16.20;99.90
22986;DHT22;11659;51.092;7.080;2022-09-09T02:09:26;16.20;99.90
22986;DHT22;11659;51.092;7.080;2022-09-09T02:12:00;16.20;99.90
22986;DHT22;11659;51.092;7.080;2022-09-09T02:14:40;16.20;99.90
22986;DHT22;11659;51.092;7.080;2022-09-09T02:17:09;16.20;99.90
22986;DHT22;11659;51.092;7.080;2022-09-09T02:19:59;16.20;99.90
22986;DHT22;11659;51.092;7.080;2022-09-09T02:22:42;16.10;99.90
22986;DHT22;11659;51.092;7.080;2022-09-09T02:25:12;16.20;99.90
22986;DHT22;11659;51.092;7.080;2022-09-09T02:27:41;16.20;99.90
22986;DHT22;11659;51.092;7.080;2022-09-09T02:30:10;16.20;99.90
22986;DHT22;11659;51.092;7.080;2022-09-09T02:32:43;16.20;99.90
22986;DHT22;11659;51.092;7.080;2022-09-09T02:35:14;16.20;99.90
22986;DHT22;11659;51.092;7.080;2022-09-09T02:37:43;16.20;99.90
22986;DHT22;11659;51.092;7.080;2022-09-09T02:40:13;16.20;99.90
22986;DHT22;11659;51.092;7.080;2022-09-09T02:42:46;16.20;99.90
22986;DHT22;11659;51.092;7.080;2022-09-09T02:45:17;16.30;99.90
22986;DHT22;11659;51.092;7.080;2022-09-09T02:47:50;16.30;99.90
22986;DHT22;11659;51.092;7.080;2022-09-09T02:50:22;16.30;99.90
22986;DHT22;11659;51.092;7.080;2022-09-09T02:52:59;16.30;99.90
22986;DHT22;11659;51.092;7.080;2022-09-09T02:55:37;16.30;99.90
22986;DHT22;11659;51.092;7.080;2022-09-09T02:58:09;16.30;99.90
22986;DHT22;11659;51.092;7.080;2022-09-09T03:00:36;16.30;99.90
22986;DHT22;11659;51.092;7.080;2022-09-09T03:03:03;16.30;99.90
22986;DHT22;11659;51.092;7.080;2022-09-09T03:05:31;16.30;99.90
22986;DHT22;11659;51.092;7.080;2022-09-09T03:07:58;16.30;99.90
22986;DHT22;11659;51.092;7.080;2022-09-09T03:10:24;16.30;99.90
22986;DHT22;11659;51.092;7.080;2022-09-09T03:12:50;16.30;99.90
22986;DHT22;11659;51.092;7.080;2022-09-09T03:15:18;16.30;99.90
22986;DHT22;11659;51.092;7.080;2022-09-09T03:17:45;16.40;99.90
22986;DHT22;11659;51.092;7.080;2022-09-09T03:20:11;16.40;99.90
22986;DHT22;11659;51.092;7.080;2022-09-09T03:22:38;16.40;99.90
22986;DHT22;11659;51.092;7.080;2022-09-09T03:25:04;16.40;99.90
22986;DHT22;11659;51.092;7.080;2022-09-09T03:27:33;16.40;99.90
22986;DHT22;11659;51.092;7.080;2022-09-09T03:29:59;16.30;99.90
22986;DHT22;11659;51.092;7.080;2022-09-09T03:32:31;16.30;99.90
22986;DHT22;11659;51.092;7.080;2022-09-09T03:34:57;16.30;99.90
22986;DHT22;11659;51.092;7.080;2022-09-09T03:37:23;16.30;99.90
22986;DHT22;11659;51.092;7.080;2022-09-09T03:39:50;16.30;99.90
22986;DHT22;11659;51.092;7.080;2022-09-09T03:42:18;16.30;99.90
22986;DHT22;11659;51.092;7.080;2022-09-09T03:44:44;16.20;99.90
22986;DHT22;11659;51.092;7.080;2022-09-09T03:47:12;16.20;99.90
22986;DHT22;11659;51.092;7.080;2022-09-09T03:49:40;16.20;99.90
22986;DHT22;11659;51.092;7.080;2022-09-09T03:52:07;16.20;99.90
22986;DHT22;11659;51.092;7.080;2022-09-09T03:54:33;16.20;99.90
22986;DHT22;11659;51.092;7.080;2022-09-09T03:56:59;16.20;99.90
22986;DHT22;11659;51.092;7.080;2022-09-09T03:59:25;16.10;99.90
22986;DHT22;11659;51.092;7.080;2022-09-09T04:01:52;16.10;99.90
22986;DHT22;11659;51.092;7.080;2022-09-09T04:04:18;16.20;99.90
22986;DHT22;11659;51.092;7.080;2022-09-09T04:06:47;16.20;99.90
22986;DHT22;11659;51.092;7.080;2022-09-09T04:09:16;16.20;99.90
22986;DHT22;11659;51.092;7.080;2022-09-09T04:11:42;16.20;99.90
22986;DHT22;11659;51.092;7.080;2022-09-09T04:14:08;16.20;99.90
22986;DHT22;11659;51.092;7.080;2022-09-09T04:16:35;16.20;99.90
22986;DHT22;11659;51.092;7.080;2022-09-09T04:19:03;16.20;99.90
22986;DHT22;11659;51.092;7.080;2022-09-09T04:21:30;16.20;99.90
22986;DHT22;11659;51.092;7.080;2022-09-09T04:23:57;16.20;99.90
22986;DHT22;11659;51.092;7.080;2022-09-09T04:26:24;16.20;99.90
22986;DHT22;11659;51.092;7.080;2022-09-09T04:28:50;16.20;99.90
22986;DHT22;11659;51.092;7.080;2022-09-09T04:31:19;16.20;99.90
22986;DHT22;11659;51.092;7.080;2022-09-09T04:33:48;16.20;99.90
22986;DHT22;11659;51.092;7.080;2022-09-09T04:36:15;16.20;99.90
22986;DHT22;11659;51.092;7.080;2022-09-09T04:38:41;16.20;99.90
22986;DHT22;11659;51.092;7.080;2022-09-09T04:41:09;16.20;99.90
22986;DHT22;11659;51.092;7.080;2022-09-09T04:43:38;16.20;99.90
22986;DHT22;11659;51.092;7.080;2022-09-09T04:46:06;16.20;99.90
22986;DHT22;11659;51.092;7.080;2022-09-09T04:48:33;16.30;99.90
22986;DHT22;11659;51.092;7.080;2022-09-09T04:51:02;16.30;99.90
22986;DHT22;11659;51.092;7.080;2022-09-09T04:53:30;16.30;99.90
22986;DHT22;11659;51.092;7.080;2022-09-09T04:56:02;16.30;99.90
22986;DHT22;11659;51.092;7.080;2022-09-09T04:58:31;16.30;99.90
22986;DHT22;11659;51.092;7.080;2022-09-09T05:01:06;16.30;99.90
22986;DHT22;11659;51.092;7.080;2022-09-09T05:03:32;16.30;99.90
22986;DHT22;11659;51.092;7.080;2022-09-09T05:06:03;16.30;99.90
22986;DHT22;11659;51.092;7.080;2022-09-09T05:08:30;16.30;99.90
22986;DHT22;11659;51.092;7.080;2022-09-09T05:10:56;16.30;99.90
22986;DHT22;11659;51.092;7.080;2022-09-09T05:13:22;16.30;99.90
22986;DHT22;11659;51.092;7.080;2022-09-09T05:15:53;16.30;99.90
22986;DHT22;11659;51.092;7.080;2022-09-09T05:18:19;16.30;99.90
22986;DHT22;11659;51.092;7.080;2022-09-09T05:20:45;16.30;99.90
22986;DHT22;11659;51.092;7.080;2022-09-09T05:23:11;16.30;99.90
22986;DHT22;11659;51.092;7.080;2022-09-09T05:25:39;16.30;99.90
22986;DHT22;11659;51.092;7.080;2022-09-09T05:28:09;16.30;99.90
22986;DHT22;11659;51.092;7.080;2022-09-09T05:30:37;16.30;99.90
22986;DHT22;11659;51.092;7.080;2022-09-09T05:33:06;16.30;99.90
22986;DHT22;11659;51.092;7.080;2022-09-09T05:35:32;16.30;99.90
22986;DHT22;11659;51.092;7.080;2022-09-09T05:37:59;16.30;99.90
22986;DHT22;11659;51.092;7.080;2022-09-09T05:40:26;16.30;99.90
22986;DHT22;11659;51.092;7.080;2022-09-09T05:42:52;16.30;99.90
22986;DHT22;11659;51.092;7.080;2022-09-09T05:45:19;16.30;99.90
22986;DHT22;11659;51.092;7.080;2022-09-09T05:47:51;16.20;99.90
22986;DHT22;11659;51.092;7.080;2022-09-09T05:50:20;16.20;99.90
22986;DHT22;11659;51.092;7.080;2022-09-09T05:52:46;16.10;99.90
22986;DHT22;11659;51.092;7.080;2022-09-09T05:55:13;16.10;99.90
22986;DHT22;11659;51.092;7.080;2022-09-09T05:57:39;16.10;99.90
22986;DHT22;11659;51.092;7.080;2022-09-09T06:00:06;16.00;99.90
22986;DHT22;11659;51.092;7.080;2022-09-09T06:02:39;16.00;99.90
22986;DHT22;11659;51.092;7.080;2022-09-09T06:05:07;16.00;99.90
22986;DHT22;11659;51.092;7.080;2022-09-09T06:07:35;16.00;99.90
22986;DHT22;11659;51.092;7.080;2022-09-09T06:10:01;15.90;99.90
22986;DHT22;11659;51.092;7.080;2022-09-09T06:12:29;15.90;99.90
22986;DHT22;11659;51.092;7.080;2022-09-09T06:14:55;15.90;99.90
22986;DHT22;11659;51.092;7.080;2022-09-09T06:17:22;15.90;99.90
22986;DHT22;11659;51.092;7.080;2022-09-09T06:19:49;15.90;99.90
22986;DHT22;11659;51.092;7.080;2022-09-09T06:22:16;15.90;99.90
22986;DHT22;11659;51.092;7.080;2022-09-09T06:24:44;15.90;99.90
22986;DHT22;11659;51.092;7.080;2022-09-09T06:27:10;16.00;99.90
22986;DHT22;11659;51.092;7.080;2022-09-09T06:29:36;16.00;99.90
22986;DHT22;11659;51.092;7.080;2022-09-09T06:32:02;16.00;99.90
22986;DHT22;11659;51.092;7.080;2022-09-09T06:34:28;16.00;99.90
22986;DHT22;11659;51.092;7.080;2022-09-09T06:36:56;16.00;99.90
22986;DHT22;11659;51.092;7.080;2022-09-09T06:39:24;16.10;99.90
22986;DHT22;11659;51.092;7.080;2022-09-09T06:41:51;16.10;99.90
22986;DHT22;11659;51.092;7.080;2022-09-09T06:44:54;16.10;99.90
22986;DHT22;11659;51.092;7.080;2022-09-09T06:47:35;16.10;99.90
22986;DHT22;11659;51.092;7.080;2022-09-09T06:50:02;16.10;99.90
22986;DHT22;11659;51.092;7.080;2022-09-09T06:52:32;16.10;99.90
22986;DHT22;11659;51.092;7.080;2022-09-09T06:55:00;16.10;99.90
22986;DHT22;11659;51.092;7.080;2022-09-09T06:57:28;16.10;99.90
22986;DHT22;11659;51.092;7.080;2022-09-09T06:59:54;16.20;99.90
22986;DHT22;11659;51.092;7.080;2022-09-09T07:02:20;16.20;99.90
22986;DHT22;11659;51.092;7.080;2022-09-09T07:04:47;16.20;99.90
22986;DHT22;11659;51.092;7.080;2022-09-09T07:07:13;16.30;99.90
22986;DHT22;11659;51.092;7.080;2022-09-09T07:09:41;16.30;99.90
22986;DHT22;11659;51.092;7.080;2022-09-09T07:12:07;16.30;99.90
22986;DHT22;11659;51.092;7.080;2022-09-09T07:14:37;16.30;99.90
22986;DHT22;11659;51.092;7.080;2022-09-09T07:17:06;16.40;99.90
22986;DHT22;11659;51.092;7.080;2022-09-09T07:19:36;16.40;99.90
22986;DHT22;11659;51.092;7.080;2022-09-09T07:22:03;16.50;99.90
22986;DHT22;11659;51.092;7.080;2022-09-09T07:24:30;16.70;99.90
22986;DHT22;11659;51.092;7.080;2022-09-09T07:26:56;16.90;99.90
22986;DHT22;11659;51.092;7.080;2022-09-09T07:29:22;17.00;99.90
22986;DHT22;11659;51.092;7.080;2022-09-09T07:31:51;17.10;99.90
22986;DHT22;11659;51.092;7.080;2022-09-09T07:34:23;17.20;99.90
22986;DHT22;11659;51.092;7.080;2022-09-09T07:36:49;17.30;99.90
22986;DHT22;11659;51.092;7.080;2022-09-09T07:39:16;17.30;99.90
22986;DHT22;11659;51.092;7.080;2022-09-09T07:41:48;17.30;99.90
22986;DHT22;11659;51.092;7.080;2022-09-09T07:44:18;17.30;99.90
22986;DHT22;11659;51.092;7.080;2022-09-09T07:46:49;17.30;99.90
22986;DHT22;11659;51.092;7.080;2022-09-09T07:49:20;17.30;99.90
22986;DHT22;11659;51.092;7.080;2022-09-09T07:51:47;17.30;99.90
22986;DHT22;11659;51.092;7.080;2022-09-09T07:54:16;17.30;99.90
22986;DHT22;11659;51.092;7.080;2022-09-09T07:56:47;17.30;99.90
22986;DHT22;11659;51.092;7.080;2022-09-09T07:59:13;17.30;99.90
22986;DHT22;11659;51.092;7.080;2022-09-09T08:01:43;17.40;99.90
22986;DHT22;11659;51.092;7.080;2022-09-09T08:04:13;17.40;99.90
22986;DHT22;11659;51.092;7.080;2022-09-09T08:06:46;17.50;99.90
22986;DHT22;11659;51.092;7.080;2022-09-09T08:09:14;17.60;99.90
22986;DHT22;11659;51.092;7.080;2022-09-09T08:11:42;17.60;99.90
22986;DHT22;11659;51.092;7.080;2022-09-09T08:14:10;17.60;99.90
22986;DHT22;11659;51.092;7.080;2022-09-09T08:16:38;17.70;99.90
22986;DHT22;11659;51.092;7.080;2022-09-09T08:19:05;17.70;99.90
22986;DHT22;11659;51.092;7.080;2022-09-09T08:21:35;17.80;99.90
22986;DHT22;11659;51.092;7.080;2022-09-09T08:24:04;17.80;99.90
22986;DHT22;11659;51.092;7.080;2022-09-09T08:26:35;17.80;99.90
22986;DHT22;11659;51.092;7.080;2022-09-09T08:29:04;17.80;99.90
22986;DHT22;11659;51.092;7.080;2022-09-09T08:31:32;17.80;99.90
22986;DHT22;11659;51.092;7.080;2022-09-09T08:34:00;17.80;99.90
22986;DHT22;11659;51.092;7.080;2022-09-09T08:36:29;17.80;99.90
22986;DHT22;11659;51.092;7.080;2022-09-09T08:38:57;17.80;99.90
22986;DHT22;11659;51.092;7.080;2022-09-09T08:41:40;17.90;99.90
22986;DHT22;11659;51.092;7.080;2022-09-09T08:44:17;17.90;99.90
22986;DHT22;11659;51.092;7.080;2022-09-09T08:46:50;17.90;99.90
22986;DHT22;11659;51.092;7.080;2022-09-09T08:49:42;18.00;99.90
22986;DHT22;11659;51.092;7.080;2022-09-09T08:52:16;18.00;99.90
22986;DHT22;11659;51.092;7.080;2022-09-09T08:54:46;18.10;99.90
22986;DHT22;11659;51.092;7.080;2022-09-09T08:57:16;18.10;99.90
22986;DHT22;11659;51.092;7.080;2022-09-09T08:59:44;18.20;99.90
22986;DHT22;11659;51.092;7.080;2022-09-09T09:02:15;18.30;99.90
22986;DHT22;11659;51.092;7.080;2022-09-09T09:04:54;18.40;99.90
22986;DHT22;11659;51.092;7.080;2022-09-09T09:07:32;18.40;99.90
22986;DHT22;11659;51.092;7.080;2022-09-09T09:10:12;18.40;99.90
22986;DHT22;11659;51.092;7.080;2022-09-09T09:12:43;18.50;99.90
22986;DHT22;11659;51.092;7.080;2022-09-09T09:15:18;18.50;99.90
22986;DHT22;11659;51.092;7.080;2022-09-09T09:17:44;18.50;99.90
22986;DHT22;11659;51.092;7.080;2022-09-09T09:20:12;18.50;99.90
22986;DHT22;11659;51.092;7.080;2022-09-09T09:22:47;18.50;99.90
22986;DHT22;11659;51.092;7.080;2022-09-09T09:25:17;18.50;99.90
22986;DHT22;11659;51.092;7.080;2022-09-09T09:27:52;18.60;99.90
22986;DHT22;11659;51.092;7.080;2022-09-09T09:30:26;18.70;99.90
22986;DHT22;11659;51.092;7.080;2022-09-09T09:33:05;18.80;99.90
22986;DHT22;11659;51.092;7.080;2022-09-09T09:35:34;18.90;99.90
22986;DHT22;11659;51.092;7.080;2022-09-09T09:38:00;18.90;99.90
22986;DHT22;11659;51.092;7.080;2022-09-09T09:40:29;19.00;99.90
22986;DHT22;11659;51.092;7.080;2022-09-09T09:42:59;19.00;99.90
22986;DHT22;11659;51.092;7.080;2022-09-09T09:45:33;19.00;99.90
22986;DHT22;11659;51.092;7.080;2022-09-09T09:48:03;19.00;99.90
22986;DHT22;11659;51.092;7.080;2022-09-09T09:50:32;18.90;99.90
22986;DHT22;11659;51.092;7.080;2022-09-09T09:53:00;19.00;99.90
22986;DHT22;11659;51.092;7.080;2022-09-09T09:55:31;18.90;99.90
22986;DHT22;11659;51.092;7.080;2022-09-09T09:58:04;18.90;99.90
22986;DHT22;11659;51.092;7.080;2022-09-09T10:00:32;18.90;99.90
22986;DHT22;11659;51.092;7.080;2022-09-09T10:03:17;18.80;99.90
22986;DHT22;11659;51.092;7.080;2022-09-09T10:05:45;18.80;99.90
22986;DHT22;11659;51.092;7.080;2022-09-09T10:08:14;18.80;99.90
22986;DHT22;11659;51.092;7.080;2022-09-09T10:10:56;18.80;99.90
22986;DHT22;11659;51.092;7.080;2022-09-09T10:13:30;18.90;99.90
22986;DHT22;11659;51.092;7.080;2022-09-09T10:16:08;18.90;99.90
22986;DHT22;11659;51.092;7.080;2022-09-09T10:18:52;19.00;99.90
22986;DHT22;11659;51.092;7.080;2022-09-09T10:21:34;19.10;99.90
22986;DHT22;11659;51.092;7.080;2022-09-09T10:24:18;19.40;99.90
22986;DHT22;11659;51.092;7.080;2022-09-09T10:26:51;19.60;99.90
22986;DHT22;11659;51.092;7.080;2022-09-09T10:29:47;19.70;99.90
22986;DHT22;11659;51.092;7.080;2022-09-09T10:32:35;19.80;99.90
22986;DHT22;11659;51.092;7.080;2022-09-09T10:35:10;19.80;99.90
22986;DHT22;11659;51.092;7.080;2022-09-09T10:37:54;19.80;99.90
22986;DHT22;11659;51.092;7.080;2022-09-09T10:40:32;19.80;99.90
22986;DHT22;11659;51.092;7.080;2022-09-09T10:43:07;19.70;99.90
22986;DHT22;11659;51.092;7.080;2022-09-09T10:45:44;19.70;99.90
22986;DHT22;11659;51.092;7.080;2022-09-09T10:48:23;19.70;99.90
22986;DHT22;11659;51.092;7.080;2022-09-09T10:50:58;19.80;99.90
22986;DHT22;11659;51.092;7.080;2022-09-09T10:53:35;19.90;99.90
22986;DHT22;11659;51.092;7.080;2022-09-09T10:56:06;19.90;99.90
22986;DHT22;11659;51.092;7.080;2022-09-09T10:58:36;20.00;99.90
22986;DHT22;11659;51.092;7.080;2022-09-09T11:01:13;20.00;99.60
22986;DHT22;11659;51.092;7.080;2022-09-09T11:03:42;20.00;99.70
22986;DHT22;11659;51.092;7.080;2022-09-09T11:06:20;20.00;99.30
22986;DHT22;11659;51.092;7.080;2022-09-09T11:08:49;19.90;99.40
22986;DHT22;11659;51.092;7.080;2022-09-09T11:11:19;19.80;99.50
22986;DHT22;11659;51.092;7.080;2022-09-09T11:13:51;19.90;99.80
22986;DHT22;11659;51.092;7.080;2022-09-09T11:16:27;20.00;99.50
22986;DHT22;11659;51.092;7.080;2022-09-09T11:18:58;20.20;99.40
22986;DHT22;11659;51.092;7.080;2022-09-09T11:21:28;20.30;99.20
22986;DHT22;11659;51.092;7.080;2022-09-09T11:23:57;20.40;99.20
22986;DHT22;11659;51.092;7.080;2022-09-09T11:26:30;20.50;99.10
22986;DHT22;11659;51.092;7.080;2022-09-09T11:29:15;20.60;98.70
22986;DHT22;11659;51.092;7.080;2022-09-09T11:31:52;20.70;98.00
22986;DHT22;11659;51.092;7.080;2022-09-09T11:34:32;20.60;98.00
22986;DHT22;11659;51.092;7.080;2022-09-09T11:40:17;20.40;98.50
22986;DHT22;11659;51.092;7.080;2022-09-09T11:42:45;20.30;98.50
22986;DHT22;11659;51.092;7.080;2022-09-09T11:45:22;20.20;98.30
22986;DHT22;11659;51.092;7.080;2022-09-09T11:47:55;20.10;98.20
22986;DHT22;11659;51.092;7.080;2022-09-09T11:50:31;20.00;98.30
22986;DHT22;11659;51.092;7.080;2022-09-09T11:53:16;19.90;98.50
22986;DHT22;11659;51.092;7.080;2022-09-09T11:55:43;19.90;98.60
22986;DHT22;11659;51.092;7.080;2022-09-09T11:58:16;19.90;98.80
22986;DHT22;11659;51.092;7.080;2022-09-09T12:00:44;19.90;98.80
22986;DHT22;11659;51.092;7.080;2022-09-09T12:03:36;19.90;98.70
22986;DHT22;11659;51.092;7.080;2022-09-09T12:06:14;19.90;98.50
22986;DHT22;11659;51.092;7.080;2022-09-09T12:08:42;19.90;98.30
22986;DHT22;11659;51.092;7.080;2022-09-09T12:11:10;19.90;98.00
22986;DHT22;11659;51.092;7.080;2022-09-09T12:13:37;19.90;98.10
22986;DHT22;11659;51.092;7.080;2022-09-09T12:16:03;19.90;98.10
22986;DHT22;11659;51.092;7.080;2022-09-09T12:18:35;19.80;98.00
22986;DHT22;11659;51.092;7.080;2022-09-09T12:21:07;19.80;98.00
22986;DHT22;11659;51.092;7.080;2022-09-09T12:23:43;19.70;98.00
22986;DHT22;11659;51.092;7.080;2022-09-09T12:26:25;19.70;98.20
22986;DHT22;11659;51.092;7.080;2022-09-09T12:29:00;19.70;98.40
22986;DHT22;11659;51.092;7.080;2022-09-09T12:31:34;19.70;98.20
22986;DHT22;11659;51.092;7.080;2022-09-09T12:34:11;19.60;98.10
22986;DHT22;11659;51.092;7.080;2022-09-09T12:36:41;19.60;98.10
22986;DHT22;11659;51.092;7.080;2022-09-09T12:39:17;19.60;98.20
22986;DHT22;11659;51.092;7.080;2022-09-09T12:41:51;19.50;98.30
22986;DHT22;11659;51.092;7.080;2022-09-09T12:44:23;19.50;98.30
22986;DHT22;11659;51.092;7.080;2022-09-09T12:46:49;19.50;98.30
22986;DHT22;11659;51.092;7.080;2022-09-09T12:49:30;19.50;98.40
22986;DHT22;11659;51.092;7.080;2022-09-09T12:52:02;19.50;98.50
22986;DHT22;11659;51.092;7.080;2022-09-09T12:54:29;19.60;98.50
22986;DHT22;11659;51.092;7.080;2022-09-09T12:56:55;19.60;98.40
22986;DHT22;11659;51.092;7.080;2022-09-09T12:59:24;19.70;98.20
22986;DHT22;11659;51.092;7.080;2022-09-09T13:01:56;19.80;97.90
22986;DHT22;11659;51.092;7.080;2022-09-09T13:04:22;19.80;97.70
22986;DHT22;11659;51.092;7.080;2022-09-09T13:06:49;19.80;97.60
22986;DHT22;11659;51.092;7.080;2022-09-09T13:09:15;19.70;97.80
22986;DHT22;11659;51.092;7.080;2022-09-09T13:11:42;19.70;98.00
22986;DHT22;11659;51.092;7.080;2022-09-09T13:14:15;19.60;98.70
22986;DHT22;11659;51.092;7.080;2022-09-09T13:16:55;19.40;99.90
22986;DHT22;11659;51.092;7.080;2022-09-09T13:19:22;19.10;99.90
22986;DHT22;11659;51.092;7.080;2022-09-09T13:21:52;18.90;99.90
22986;DHT22;11659;51.092;7.080;2022-09-09T13:24:27;18.70;99.90
22986;DHT22;11659;51.092;7.080;2022-09-09T13:26:56;18.70;99.90
22986;DHT22;11659;51.092;7.080;2022-09-09T13:29:22;18.70;99.90
22986;DHT22;11659;51.092;7.080;2022-09-09T13:31:48;18.80;99.90
22986;DHT22;11659;51.092;7.080;2022-09-09T13:34:26;18.90;99.90
22986;DHT22;11659;51.092;7.080;2022-09-09T13:36:57;19.00;99.90
22986;DHT22;11659;51.092;7.080;2022-09-09T13:39:24;19.10;99.90
22986;DHT22;11659;51.092;7.080;2022-09-09T13:41:50;19.10;99.90
22986;DHT22;11659;51.092;7.080;2022-09-09T13:44:21;19.10;99.90
22986;DHT22;11659;51.092;7.080;2022-09-09T13:47:00;19.10;99.90
22986;DHT22;11659;51.092;7.080;2022-09-09T13:49:28;19.00;99.90
22986;DHT22;11659;51.092;7.080;2022-09-09T13:52:04;19.00;99.90
22986;DHT22;11659;51.092;7.080;2022-09-09T13:54:31;18.90;99.90
22986;DHT22;11659;51.092;7.080;2022-09-09T13:56:57;18.90;99.90
22986;DHT22;11659;51.092;7.080;2022-09-09T13:59:23;18.80;99.90
22986;DHT22;11659;51.092;7.080;2022-09-09T14:01:50;18.40;99.90
22986;DHT22;11659;51.092;7.080;2022-09-09T14:04:18;18.00;99.90
22986;DHT22;11659;51.092;7.080;2022-09-09T14:06:46;17.60;99.90
22986;DHT22;11659;51.092;7.080;2022-09-09T14:09:16;17.40;99.90
22986;DHT22;11659;51.092;7.080;2022-09-09T14:11:42;17.30;99.90
22986;DHT22;11659;51.092;7.080;2022-09-09T14:14:08;17.20;99.90
22986;DHT22;11659;51.092;7.080;2022-09-09T14:16:34;17.20;99.90
22986;DHT22;11659;51.092;7.080;2022-09-09T14:19:00;17.20;99.90
22986;DHT22;11659;51.092;7.080;2022-09-09T14:21:27;17.10;99.90
22986;DHT22;11659;51.092;7.080;2022-09-09T14:23:53;17.10;99.90
22986;DHT22;11659;51.092;7.080;2022-09-09T14:26:21;17.10;99.90
22986;DHT22;11659;51.092;7.080;2022-09-09T14:28:48;17.10;99.90
22986;DHT22;11659;51.092;7.080;2022-09-09T14:31:14;17.10;99.90
22986;DHT22;11659;51.092;7.080;2022-09-09T14:33:41;17.10;99.90
22986;DHT22;11659;51.092;7.080;2022-09-09T14:36:07;17.10;99.90
22986;DHT22;11659;51.092;7.080;2022-09-09T14:38:35;17.00;99.90
22986;DHT22;11659;51.092;7.080;2022-09-09T14:41:05;17.00;99.90
22986;DHT22;11659;51.092;7.080;2022-09-09T14:43:32;16.80;99.90
22986;DHT22;11659;51.092;7.080;2022-09-09T14:46:05;16.60;99.90
22986;DHT22;11659;51.092;7.080;2022-09-09T14:48:31;16.50;99.90
22986;DHT22;11659;51.092;7.080;2022-09-09T14:50:57;16.40;99.90
22986;DHT22;11659;51.092;7.080;2022-09-09T14:53:29;16.30;99.90
22986;DHT22;11659;51.092;7.080;2022-09-09T14:56:03;16.20;99.90
22986;DHT22;11659;51.092;7.080;2022-09-09T14:58:32;16.20;99.90
22986;DHT22;11659;51.092;7.080;2022-09-09T15:01:02;16.20;99.90
22986;DHT22;11659;51.092;7.080;2022-09-09T15:03:28;16.10;99.90
22986;DHT22;11659;51.092;7.080;2022-09-09T15:05:54;16.10;99.90
22986;DHT22;11659;51.092;7.080;2022-09-09T15:08:20;16.10;99.90
22986;DHT22;11659;51.092;7.080;2022-09-09T15:10:46;16.00;99.90
22986;DHT22;11659;51.092;7.080;2022-09-09T15:13:14;16.10;99.90
22986;DHT22;11659;51.092;7.080;2022-09-09T15:15:43;16.00;99.90
22986;DHT22;11659;51.092;7.080;2022-09-09T15:18:09;16.10;99.90
22986;DHT22;11659;51.092;7.080;2022-09-09T15:20:35;16.20;99.90
22986;DHT22;11659;51.092;7.080;2022-09-09T15:23:03;16.20;99.90
22986;DHT22;11659;51.092;7.080;2022-09-09T15:25:29;16.30;99.90
22986;DHT22;11659;51.092;7.080;2022-09-09T15:27:54;16.40;99.90
22986;DHT22;11659;51.092;7.080;2022-09-09T15:30:21;16.40;99.90
22986;DHT22;11659;51.092;7.080;2022-09-09T15:32:49;16.50;99.90
22986;DHT22;11659;51.092;7.080;2022-09-09T15:35:15;16.50;99.90
22986;DHT22;11659;51.092;7.080;2022-09-09T15:37:41;16.60;99.90
22986;DHT22;11659;51.092;7.080;2022-09-09T15:40:07;16.60;99.90
22986;DHT22;11659;51.092;7.080;2022-09-09T15:42:33;16.70;99.90
22986;DHT22;11659;51.092;7.080;2022-09-09T15:44:59;16.80;99.90
22986;DHT22;11659;51.092;7.080;2022-09-09T15:47:25;16.90;99.90
22986;DHT22;11659;51.092;7.080;2022-09-09T15:49:54;16.90;99.90
22986;DHT22;11659;51.092;7.080;2022-09-09T15:52:20;16.90;99.90
22986;DHT22;11659;51.092;7.080;2022-09-09T15:54:46;17.00;99.90